sensor_id;sensor_type;location;lat;lon;timestamp;temperature;humidity
23259;DHT22;11798;51.528;7.240;2022-10-31T00:00:59;15.20;99.90
23259;DHT22;11798;51.528;7.240;2022-10-31T00:03:25;15.30;99.90
23259;DHT22;11798;51.528;7.240;2022-10-31T00:05:52;15.30;99.90
23259;DHT22;11798;51.528;7.240;2022-10-31T00:08:18;15.30;99.90
23259;DHT22;11798;51.528;7.240;2022-10-31T00:10:45;15.30;99.90
23259;DHT22;11798;51.528;7.240;2022-10-31T00:13:12;15.30;99.90
23259;DHT22;11798;51.528;7.240;2022-10-31T00:15:39;15.30;99.90
23259;DHT22;11798;51.528;7.240;2022-10-31T00:18:05;15.30;99.90
23259;DHT22;11798;51.528;7.240;2022-10-31T00:20:31;15.30;99.90
23259;DHT22;11798;51.528;7.240;2022-10-31T00:22:58;15.30;99.90
23259;DHT22;11798;51.528;7.240;2022-10-31T00:25:24;15.30;99.90
23259;DHT22;11798;51.528;7.240;2022-10-31T00:27:50;15.30;99.90
23259;DHT22;11798;51.528;7.240;2022-10-31T00:30:16;15.40;99.90
23259;DHT22;11798;51.528;7.240;2022-10-31T00:32:41;15.40;99.90
23259;DHT22;11798;51.528;7.240;2022-10-31T00:35:07;15.40;99.90
23259;DHT22;11798;51.528;7.240;2022-10-31T00:37:33;15.40;99.90
23259;DHT22;11798;51.528;7.240;2022-10-31T00:39:58;15.40;99.90
23259;DHT22;11798;51.528;7.240;2022-10-31T00:42:24;15.40;99.90
23259;DHT22;11798;51.528;7.240;2022-10-31T00:44:49;15.40;99.90
23259;DHT22;11798;51.528;7.240;2022-10-31T00:47:15;15.30;99.90
23259;DHT22;11798;51.528;7.240;2022-10-31T00:49:40;15.30;99.90
23259;DHT22;11798;51.528;7.240;2022-10-31T00:52:06;15.30;99.90
23259;DHT22;11798;51.528;7.240;2022-10-31T00:54:31;15.30;99.90
23259;DHT22;11798;51.528;7.240;2022-10-31T00:56:57;15.20;99.90
23259;DHT22;11798;51.528;7.240;2022-10-31T00:59:23;15.20;99.90
23259;DHT22;11798;51.528;7.240;2022-10-31T01:01:48;15.20;99.90
23259;DHT22;11798;51.528;7.240;2022-10-31T01:04:14;15.20;99.90
23259;DHT22;11798;51.528;7.240;2022-10-31T01:06:40;15.20;99.90
23259;DHT22;11798;51.528;7.240;2022-10-31T01:09:05;15.20;99.90
23259;DHT22;11798;51.528;7.240;2022-10-31T01:11:31;15.20;99.90
23259;DHT22;11798;51.528;7.240;2022-10-31T01:13:57;15.20;99.90
23259;DHT22;11798;51.528;7.240;2022-10-31T01:16:24;15.30;99.90
23259;DHT22;11798;51.528;7.240;2022-10-31T01:18:50;15.20;99.90
23259;DHT22;11798;51.528;7.240;2022-10-31T01:21:19;15.20;99.90
23259;DHT22;11798;51.528;7.240;2022-10-31T01:23:45;15.10;99.90
23259;DHT22;11798;51.528;7.240;2022-10-31T01:26:19;15.10;99.90
23259;DHT22;11798;51.528;7.240;2022-10-31T01:28:47;15.10;99.90
23259;DHT22;11798;51.528;7.240;2022-10-31T01:31:14;15.10;99.90
23259;DHT22;11798;51.528;7.240;2022-10-31T01:33:40;15.00;99.90
23259;DHT22;11798;51.528;7.240;2022-10-31T01:36:18;15.00;99.90
23259;DHT22;11798;51.528;7.240;2022-10-31T01:38:48;15.00;99.90
23259;DHT22;11798;51.528;7.240;2022-10-31T01:41:16;15.00;99.90
23259;DHT22;11798;51.528;7.240;2022-10-31T01:43:54;15.00;99.90
23259;DHT22;11798;51.528;7.240;2022-10-31T01:46:39;15.10;99.90
23259;DHT22;11798;51.528;7.240;2022-10-31T01:49:11;15.10;99.90
23259;DHT22;11798;51.528;7.240;2022-10-31T01:51:45;15.10;99.90
23259;DHT22;11798;51.528;7.240;2022-10-31T01:54:14;15.10;99.90
23259;DHT22;11798;51.528;7.240;2022-10-31T01:56:43;15.10;99.90
23259;DHT22;11798;51.528;7.240;2022-10-31T01:59:14;15.00;99.90
23259;DHT22;11798;51.528;7.240;2022-10-31T02:01:42;14.90;99.90
23259;DHT22;11798;51.528;7.240;2022-10-31T02:04:08;14.90;99.90
23259;DHT22;11798;51.528;7.240;2022-10-31T02:06:59;14.90;99.90
23259;DHT22;11798;51.528;7.240;2022-10-31T02:09:26;15.00;99.90
23259;DHT22;11798;51.528;7.240;2022-10-31T02:11:54;15.00;99.90
23259;DHT22;11798;51.528;7.240;2022-10-31T02:14:24;15.10;99.90
23259;DHT22;11798;51.528;7.240;2022-10-31T02:16:50;15.10;99.90
23259;DHT22;11798;51.528;7.240;2022-10-31T02:33:41;14.80;99.90
23259;DHT22;11798;51.528;7.240;2022-10-31T02:39:12;14.80;99.90
23259;DHT22;11798;51.528;7.240;2022-10-31T02:41:54;14.80;99.90
23259;DHT22;11798;51.528;7.240;2022-10-31T02:44:42;14.80;99.90
23259;DHT22;11798;51.528;7.240;2022-10-31T02:47:14;14.70;99.90
23259;DHT22;11798;51.528;7.240;2022-10-31T02:50:02;14.70;99.90
23259;DHT22;11798;51.528;7.240;2022-10-31T02:52:34;14.70;99.90
23259;DHT22;11798;51.528;7.240;2022-10-31T02:57:53;14.70;99.90
23259;DHT22;11798;51.528;7.240;2022-10-31T03:00:20;14.70;99.90
23259;DHT22;11798;51.528;7.240;2022-10-31T03:10:59;14.60;99.90
23259;DHT22;11798;51.528;7.240;2022-10-31T03:16:13;14.70;99.90
23259;DHT22;11798;51.528;7.240;2022-10-31T03:19:00;14.60;99.90
23259;DHT22;11798;51.528;7.240;2022-10-31T03:21:37;14.70;99.90
23259;DHT22;11798;51.528;7.240;2022-10-31T03:24:06;14.70;99.90
23259;DHT22;11798;51.528;7.240;2022-10-31T03:26:35;14.70;99.90
23259;DHT22;11798;51.528;7.240;2022-10-31T03:29:05;14.70;99.90
23259;DHT22;11798;51.528;7.240;2022-10-31T03:31:38;14.70;99.90
23259;DHT22;11798;51.528;7.240;2022-10-31T03:34:06;14.60;99.90
23259;DHT22;11798;51.528;7.240;2022-10-31T03:36:34;14.60;99.90
23259;DHT22;11798;51.528;7.240;2022-10-31T03:39:02;14.50;99.90
23259;DHT22;11798;51.528;7.240;2022-10-31T03:41:33;14.40;99.90
23259;DHT22;11798;51.528;7.240;2022-10-31T03:44:14;14.40;99.90
23259;DHT22;11798;51.528;7.240;2022-10-31T03:46:40;14.40;99.90
23259;DHT22;11798;51.528;7.240;2022-10-31T03:49:07;14.40;99.90
23259;DHT22;11798;51.528;7.240;2022-10-31T03:51:42;14.30;99.90
23259;DHT22;11798;51.528;7.240;2022-10-31T03:54:58;14.30;99.90
23259;DHT22;11798;51.528;7.240;2022-10-31T04:00:26;14.10;99.90
23259;DHT22;11798;51.528;7.240;2022-10-31T04:02:34;14.10;99.90
23259;DHT22;11798;51.528;7.240;2022-10-31T04:05:01;14.00;99.90
23259;DHT22;11798;51.528;7.240;2022-10-31T04:07:30;14.00;99.90
23259;DHT22;11798;51.528;7.240;2022-10-31T04:09:58;14.00;99.90
23259;DHT22;11798;51.528;7.240;2022-10-31T04:12:27;14.00;99.90
23259;DHT22;11798;51.528;7.240;2022-10-31T04:14:54;13.90;99.90
23259;DHT22;11798;51.528;7.240;2022-10-31T04:17:22;13.80;99.90
23259;DHT22;11798;51.528;7.240;2022-10-31T04:19:48;13.80;99.90
23259;DHT22;11798;51.528;7.240;2022-10-31T04:22:14;13.80;99.90
23259;DHT22;11798;51.528;7.240;2022-10-31T04:24:40;13.80;99.90
23259;DHT22;11798;51.528;7.240;2022-10-31T04:27:06;13.80;99.90
23259;DHT22;11798;51.528;7.240;2022-10-31T04:29:32;13.70;99.90
23259;DHT22;11798;51.528;7.240;2022-10-31T04:31:57;13.70;99.90
23259;DHT22;11798;51.528;7.240;2022-10-31T04:34:23;13.70;99.90
23259;DHT22;11798;51.528;7.240;2022-10-31T04:36:49;13.70;99.90
23259;DHT22;11798;51.528;7.240;2022-10-31T04:39:14;13.60;99.90
23259;DHT22;11798;51.528;7.240;2022-10-31T04:41:40;13.60;99.90
23259;DHT22;11798;51.528;7.240;2022-10-31T04:44:05;13.60;99.90
23259;DHT22;11798;51.528;7.240;2022-10-31T04:46:31;13.60;99.90
23259;DHT22;11798;51.528;7.240;2022-10-31T04:48:56;13.60;99.90
23259;DHT22;11798;51.528;7.240;2022-10-31T04:51:22;13.50;99.90
23259;DHT22;11798;51.528;7.240;2022-10-31T04:53:48;13.50;99.90
23259;DHT22;11798;51.528;7.240;2022-10-31T04:56:14;13.50;99.90
23259;DHT22;11798;51.528;7.240;2022-10-31T04:58:39;13.50;99.90
23259;DHT22;11798;51.528;7.240;2022-10-31T05:01:05;13.50;99.90
23259;DHT22;11798;51.528;7.240;2022-10-31T05:03:30;13.30;99.90
23259;DHT22;11798;51.528;7.240;2022-10-31T05:05:56;13.20;99.90
23259;DHT22;11798;51.528;7.240;2022-10-31T05:08:21;13.20;99.90
23259;DHT22;11798;51.528;7.240;2022-10-31T05:10:47;13.20;99.90
23259;DHT22;11798;51.528;7.240;2022-10-31T05:13:13;13.10;99.90
23259;DHT22;11798;51.528;7.240;2022-10-31T05:15:40;13.10;99.90
23259;DHT22;11798;51.528;7.240;2022-10-31T05:18:05;13.00;99.90
23259;DHT22;11798;51.528;7.240;2022-10-31T05:20:31;13.00;99.90
23259;DHT22;11798;51.528;7.240;2022-10-31T05:22:58;13.00;99.90
23259;DHT22;11798;51.528;7.240;2022-10-31T05:25:25;13.00;99.90
23259;DHT22;11798;51.528;7.240;2022-10-31T05:27:53;13.00;99.90
23259;DHT22;11798;51.528;7.240;2022-10-31T05:30:22;13.00;99.90
23259;DHT22;11798;51.528;7.240;2022-10-31T05:32:50;12.90;99.90
23259;DHT22;11798;51.528;7.240;2022-10-31T05:35:18;12.90;99.90
23259;DHT22;11798;51.528;7.240;2022-10-31T05:37:44;12.80;99.90
23259;DHT22;11798;51.528;7.240;2022-10-31T05:40:11;12.80;99.90
23259;DHT22;11798;51.528;7.240;2022-10-31T05:42:41;12.80;99.90
23259;DHT22;11798;51.528;7.240;2022-10-31T05:45:11;12.80;99.90
23259;DHT22;11798;51.528;7.240;2022-10-31T05:47:37;12.80;99.90
23259;DHT22;11798;51.528;7.240;2022-10-31T05:50:03;12.80;99.90
23259;DHT22;11798;51.528;7.240;2022-10-31T05:52:29;12.80;99.90
23259;DHT22;11798;51.528;7.240;2022-10-31T05:54:55;12.80;99.90
23259;DHT22;11798;51.528;7.240;2022-10-31T05:57:20;12.80;99.90
23259;DHT22;11798;51.528;7.240;2022-10-31T05:59:46;12.80;99.90
23259;DHT22;11798;51.528;7.240;2022-10-31T06:02:11;12.70;99.90
23259;DHT22;11798;51.528;7.240;2022-10-31T06:04:37;12.80;99.90
23259;DHT22;11798;51.528;7.240;2022-10-31T06:07:02;12.80;99.90
23259;DHT22;11798;51.528;7.240;2022-10-31T06:09:28;12.80;99.90
23259;DHT22;11798;51.528;7.240;2022-10-31T06:11:53;12.80;99.90
23259;DHT22;11798;51.528;7.240;2022-10-31T06:14:19;12.80;99.90
23259;DHT22;11798;51.528;7.240;2022-10-31T06:16:44;12.80;99.90
23259;DHT22;11798;51.528;7.240;2022-10-31T06:19:10;12.80;99.90
23259;DHT22;11798;51.528;7.240;2022-10-31T06:21:35;12.80;99.90
23259;DHT22;11798;51.528;7.240;2022-10-31T06:24:01;12.80;99.90
23259;DHT22;11798;51.528;7.240;2022-10-31T06:26:27;12.80;99.90
23259;DHT22;11798;51.528;7.240;2022-10-31T06:28:52;12.80;99.90
23259;DHT22;11798;51.528;7.240;2022-10-31T06:31:18;12.80;99.90
23259;DHT22;11798;51.528;7.240;2022-10-31T06:33:43;12.80;99.90
23259;DHT22;11798;51.528;7.240;2022-10-31T06:36:10;12.80;99.90
23259;DHT22;11798;51.528;7.240;2022-10-31T06:38:35;12.80;99.90
23259;DHT22;11798;51.528;7.240;2022-10-31T06:41:04;12.80;99.90
23259;DHT22;11798;51.528;7.240;2022-10-31T06:43:30;12.80;99.90
23259;DHT22;11798;51.528;7.240;2022-10-31T06:45:57;12.80;99.90
23259;DHT22;11798;51.528;7.240;2022-10-31T06:48:22;12.80;99.90
23259;DHT22;11798;51.528;7.240;2022-10-31T06:50:48;12.80;99.90
23259;DHT22;11798;51.528;7.240;2022-10-31T06:53:14;12.80;99.90
23259;DHT22;11798;51.528;7.240;2022-10-31T06:55:40;12.80;99.90
23259;DHT22;11798;51.528;7.240;2022-10-31T06:58:06;12.90;99.90
23259;DHT22;11798;51.528;7.240;2022-10-31T07:00:32;12.90;99.90
23259;DHT22;11798;51.528;7.240;2022-10-31T07:03:04;12.90;99.90
23259;DHT22;11798;51.528;7.240;2022-10-31T07:05:30;12.90;99.90
23259;DHT22;11798;51.528;7.240;2022-10-31T07:08:01;12.90;99.90
23259;DHT22;11798;51.528;7.240;2022-10-31T07:10:28;13.00;99.90
23259;DHT22;11798;51.528;7.240;2022-10-31T07:12:59;13.00;99.90
23259;DHT22;11798;51.528;7.240;2022-10-31T07:15:26;13.00;99.90
23259;DHT22;11798;51.528;7.240;2022-10-31T07:17:52;13.00;99.90
23259;DHT22;11798;51.528;7.240;2022-10-31T07:20:18;13.10;99.90
23259;DHT22;11798;51.528;7.240;2022-10-31T07:22:44;13.10;99.90
23259;DHT22;11798;51.528;7.240;2022-10-31T07:25:10;13.10;99.90
23259;DHT22;11798;51.528;7.240;2022-10-31T07:27:40;13.10;99.90
23259;DHT22;11798;51.528;7.240;2022-10-31T07:30:07;13.10;99.90
23259;DHT22;11798;51.528;7.240;2022-10-31T07:32:40;13.10;99.90
23259;DHT22;11798;51.528;7.240;2022-10-31T07:35:07;13.10;99.90
23259;DHT22;11798;51.528;7.240;2022-10-31T07:37:33;13.10;99.90
23259;DHT22;11798;51.528;7.240;2022-10-31T07:39:59;13.10;99.90
23259;DHT22;11798;51.528;7.240;2022-10-31T07:42:24;13.10;99.90
23259;DHT22;11798;51.528;7.240;2022-10-31T07:44:50;13.10;99.90
23259;DHT22;11798;51.528;7.240;2022-10-31T07:47:15;13.20;99.90
23259;DHT22;11798;51.528;7.240;2022-10-31T07:49:41;13.30;99.90
23259;DHT22;11798;51.528;7.240;2022-10-31T07:52:06;13.20;99.90
23259;DHT22;11798;51.528;7.240;2022-10-31T07:54:32;13.30;99.90
23259;DHT22;11798;51.528;7.240;2022-10-31T07:56:57;13.30;99.90
23259;DHT22;11798;51.528;7.240;2022-10-31T07:59:23;13.30;99.90
23259;DHT22;11798;51.528;7.240;2022-10-31T08:01:49;13.40;99.90
23259;DHT22;11798;51.528;7.240;2022-10-31T08:04:14;13.30;99.90
23259;DHT22;11798;51.528;7.240;2022-10-31T08:06:40;13.30;99.90
23259;DHT22;11798;51.528;7.240;2022-10-31T08:09:05;13.30;99.90
23259;DHT22;11798;51.528;7.240;2022-10-31T08:11:31;13.40;99.90
23259;DHT22;11798;51.528;7.240;2022-10-31T08:13:56;13.40;99.90
23259;DHT22;11798;51.528;7.240;2022-10-31T08:16:22;13.50;99.90
23259;DHT22;11798;51.528;7.240;2022-10-31T08:18:47;13.50;99.90
23259;DHT22;11798;51.528;7.240;2022-10-31T08:21:13;13.50;99.90
23259;DHT22;11798;51.528;7.240;2022-10-31T08:23:38;13.50;99.90
23259;DHT22;11798;51.528;7.240;2022-10-31T08:26:04;13.60;99.90
23259;DHT22;11798;51.528;7.240;2022-10-31T08:28:31;13.70;99.90
23259;DHT22;11798;51.528;7.240;2022-10-31T08:30:58;13.70;99.90
23259;DHT22;11798;51.528;7.240;2022-10-31T08:33:24;13.80;99.90
23259;DHT22;11798;51.528;7.240;2022-10-31T08:35:50;13.80;99.90
23259;DHT22;11798;51.528;7.240;2022-10-31T08:38:16;13.80;99.90
23259;DHT22;11798;51.528;7.240;2022-10-31T08:40:41;13.90;99.90
23259;DHT22;11798;51.528;7.240;2022-10-31T08:43:15;14.00;99.90
23259;DHT22;11798;51.528;7.240;2022-10-31T08:45:41;14.00;99.90
23259;DHT22;11798;51.528;7.240;2022-10-31T08:48:10;14.00;99.90
23259;DHT22;11798;51.528;7.240;2022-10-31T08:50:36;14.10;99.90
23259;DHT22;11798;51.528;7.240;2022-10-31T08:53:04;14.20;99.90
23259;DHT22;11798;51.528;7.240;2022-10-31T08:55:36;14.10;99.90
23259;DHT22;11798;51.528;7.240;2022-10-31T08:58:03;14.20;99.90
23259;DHT22;11798;51.528;7.240;2022-10-31T09:00:29;14.20;99.90
23259;DHT22;11798;51.528;7.240;2022-10-31T09:02:56;14.30;99.90
23259;DHT22;11798;51.528;7.240;2022-10-31T09:05:22;14.40;99.90
23259;DHT22;11798;51.528;7.240;2022-10-31T09:07:47;14.40;99.90
23259;DHT22;11798;51.528;7.240;2022-10-31T09:10:13;14.60;99.90
23259;DHT22;11798;51.528;7.240;2022-10-31T09:12:38;14.60;99.90
23259;DHT22;11798;51.528;7.240;2022-10-31T09:15:04;14.70;99.90
23259;DHT22;11798;51.528;7.240;2022-10-31T09:17:32;14.80;99.90
23259;DHT22;11798;51.528;7.240;2022-10-31T09:19:57;14.90;99.90
23259;DHT22;11798;51.528;7.240;2022-10-31T09:22:23;15.00;99.90
23259;DHT22;11798;51.528;7.240;2022-10-31T09:24:48;15.10;99.90
23259;DHT22;11798;51.528;7.240;2022-10-31T09:27:14;15.10;99.90
23259;DHT22;11798;51.528;7.240;2022-10-31T09:29:39;15.20;99.90
23259;DHT22;11798;51.528;7.240;2022-10-31T09:32:05;15.30;99.90
23259;DHT22;11798;51.528;7.240;2022-10-31T09:34:31;15.30;99.90
23259;DHT22;11798;51.528;7.240;2022-10-31T09:36:56;15.40;99.90
23259;DHT22;11798;51.528;7.240;2022-10-31T09:39:22;15.40;99.90
23259;DHT22;11798;51.528;7.240;2022-10-31T09:44:41;15.50;99.90
23259;DHT22;11798;51.528;7.240;2022-10-31T09:47:40;15.50;99.90
23259;DHT22;11798;51.528;7.240;2022-10-31T09:50:14;15.70;99.90
23259;DHT22;11798;51.528;7.240;2022-10-31T09:53:45;15.80;99.90
23259;DHT22;11798;51.528;7.240;2022-10-31T09:55:41;15.90;99.90
23259;DHT22;11798;51.528;7.240;2022-10-31T09:58:14;15.90;99.90
23259;DHT22;11798;51.528;7.240;2022-10-31T10:00:42;16.00;99.90
23259;DHT22;11798;51.528;7.240;2022-10-31T10:03:26;16.10;99.90
23259;DHT22;11798;51.528;7.240;2022-10-31T10:08:30;16.20;99.90
23259;DHT22;11798;51.528;7.240;2022-10-31T10:11:13;16.20;99.90
23259;DHT22;11798;51.528;7.240;2022-10-31T10:25:14;16.20;99.90
23259;DHT22;11798;51.528;7.240;2022-10-31T10:28:21;16.30;99.90
23259;DHT22;11798;51.528;7.240;2022-10-31T10:31:01;16.20;99.90
23259;DHT22;11798;51.528;7.240;2022-10-31T10:36:00;16.50;99.90
23259;DHT22;11798;51.528;7.240;2022-10-31T10:41:16;16.70;99.90
23259;DHT22;11798;51.528;7.240;2022-10-31T10:43:42;16.70;99.90
23259;DHT22;11798;51.528;7.240;2022-10-31T10:49:12;16.70;99.90
23259;DHT22;11798;51.528;7.240;2022-10-31T10:51:50;16.80;99.90
23259;DHT22;11798;51.528;7.240;2022-10-31T10:55:03;16.80;99.90
23259;DHT22;11798;51.528;7.240;2022-10-31T10:57:22;16.90;99.90
23259;DHT22;11798;51.528;7.240;2022-10-31T10:59:52;16.90;99.90
23259;DHT22;11798;51.528;7.240;2022-10-31T11:02:22;17.00;99.90
23259;DHT22;11798;51.528;7.240;2022-10-31T11:04:54;17.10;99.90
23259;DHT22;11798;51.528;7.240;2022-10-31T11:07:21;17.20;99.90
23259;DHT22;11798;51.528;7.240;2022-10-31T11:09:46;17.00;99.90
23259;DHT22;11798;51.528;7.240;2022-10-31T11:12:33;17.00;99.90
23259;DHT22;11798;51.528;7.240;2022-10-31T11:15:02;17.00;99.90
23259;DHT22;11798;51.528;7.240;2022-10-31T11:17:32;17.00;99.90
23259;DHT22;11798;51.528;7.240;2022-10-31T11:22:43;17.00;99.90
23259;DHT22;11798;51.528;7.240;2022-10-31T11:25:26;17.10;99.90
23259;DHT22;11798;51.528;7.240;2022-10-31T11:28:12;16.90;99.90
23259;DHT22;11798;51.528;7.240;2022-10-31T11:30:58;16.90;99.90
23259;DHT22;11798;51.528;7.240;2022-10-31T11:33:31;16.90;99.90
23259;DHT22;11798;51.528;7.240;2022-10-31T11:35:58;17.00;99.90
23259;DHT22;11798;51.528;7.240;2022-10-31T11:38:42;17.00;99.90
23259;DHT22;11798;51.528;7.240;2022-10-31T11:41:13;17.10;99.90
23259;DHT22;11798;51.528;7.240;2022-10-31T11:43:56;17.20;99.90
23259;DHT22;11798;51.528;7.240;2022-10-31T11:46:34;17.10;99.90
23259;DHT22;11798;51.528;7.240;2022-10-31T11:49:01;17.20;99.90
23259;DHT22;11798;51.528;7.240;2022-10-31T11:51:32;17.30;99.90
23259;DHT22;11798;51.528;7.240;2022-10-31T11:53:59;17.30;99.90
23259;DHT22;11798;51.528;7.240;2022-10-31T11:56:37;17.40;99.90
23259;DHT22;11798;51.528;7.240;2022-10-31T11:59:05;17.50;99.90
23259;DHT22;11798;51.528;7.240;2022-10-31T12:01:32;17.40;99.90
23259;DHT22;11798;51.528;7.240;2022-10-31T12:04:10;17.50;99.90
23259;DHT22;11798;51.528;7.240;2022-10-31T12:06:43;17.60;99.90
23259;DHT22;11798;51.528;7.240;2022-10-31T12:09:24;17.60;99.90
23259;DHT22;11798;51.528;7.240;2022-10-31T12:25:51;17.90;99.90
23259;DHT22;11798;51.528;7.240;2022-10-31T12:30:19;18.00;99.90
23259;DHT22;11798;51.528;7.240;2022-10-31T12:44:08;18.20;99.90
23259;DHT22;11798;51.528;7.240;2022-10-31T12:54:55;18.50;99.90
23259;DHT22;11798;51.528;7.240;2022-10-31T12:57:30;18.60;99.90
23259;DHT22;11798;51.528;7.240;2022-10-31T13:00:04;18.50;99.90
23259;DHT22;11798;51.528;7.240;2022-10-31T13:02:42;18.60;99.90
23259;DHT22;11798;51.528;7.240;2022-10-31T13:05:30;18.70;99.90
23259;DHT22;11798;51.528;7.240;2022-10-31T13:08:03;18.70;99.90
23259;DHT22;11798;51.528;7.240;2022-10-31T13:10:48;18.80;99.90
23259;DHT22;11798;51.528;7.240;2022-10-31T13:13:30;18.70;99.90
23259;DHT22;11798;51.528;7.240;2022-10-31T13:16:02;18.80;99.90
23259;DHT22;11798;51.528;7.240;2022-10-31T13:18:35;18.80;99.90
23259;DHT22;11798;51.528;7.240;2022-10-31T13:21:06;18.90;99.90
23259;DHT22;11798;51.528;7.240;2022-10-31T13:23:35;19.00;99.90
23259;DHT22;11798;51.528;7.240;2022-10-31T13:26:10;19.00;99.90
23259;DHT22;11798;51.528;7.240;2022-10-31T13:29:05;19.10;99.90
23259;DHT22;11798;51.528;7.240;2022-10-31T13:31:34;19.10;99.90
23259;DHT22;11798;51.528;7.240;2022-10-31T13:34:04;19.10;99.90
23259;DHT22;11798;51.528;7.240;2022-10-31T13:36:47;19.20;99.90
23259;DHT22;11798;51.528;7.240;2022-10-31T13:42:27;19.10;99.90
23259;DHT22;11798;51.528;7.240;2022-10-31T13:45:17;19.10;99.90
23259;DHT22;11798;51.528;7.240;2022-10-31T13:47:54;19.10;99.90
23259;DHT22;11798;51.528;7.240;2022-10-31T13:50:23;19.00;99.90
23259;DHT22;11798;51.528;7.240;2022-10-31T13:52:49;19.00;99.90
23259;DHT22;11798;51.528;7.240;2022-10-31T13:55:39;19.10;99.90
23259;DHT22;11798;51.528;7.240;2022-10-31T13:58:29;19.10;99.90
23259;DHT22;11798;51.528;7.240;2022-10-31T14:03:37;19.00;99.90
23259;DHT22;11798;51.528;7.240;2022-10-31T14:06:04;18.90;99.90
23259;DHT22;11798;51.528;7.240;2022-10-31T14:08:33;18.90;99.90
23259;DHT22;11798;51.528;7.240;2022-10-31T14:11:00;19.00;99.90
23259;DHT22;11798;51.528;7.240;2022-10-31T14:13:32;19.00;99.90
23259;DHT22;11798;51.528;7.240;2022-10-31T14:16:05;19.00;99.90
23259;DHT22;11798;51.528;7.240;2022-10-31T14:18:38;19.10;99.90
23259;DHT22;11798;51.528;7.240;2022-10-31T14:23:48;19.10;99.90
23259;DHT22;11798;51.528;7.240;2022-10-31T14:29:02;19.10;99.90
23259;DHT22;11798;51.528;7.240;2022-10-31T14:31:52;19.00;99.90
23259;DHT22;11798;51.528;7.240;2022-10-31T14:34:50;19.10;99.90
23259;DHT22;11798;51.528;7.240;2022-10-31T14:37:29;19.10;99.90
23259;DHT22;11798;51.528;7.240;2022-10-31T14:40:27;19.10;99.90
23259;DHT22;11798;51.528;7.240;2022-10-31T14:50:57;19.00;99.90
23259;DHT22;11798;51.528;7.240;2022-10-31T14:55:53;19.00;99.90
23259;DHT22;11798;51.528;7.240;2022-10-31T15:00:57;18.80;99.90
23259;DHT22;11798;51.528;7.240;2022-10-31T15:03:34;18.80;99.90
23259;DHT22;11798;51.528;7.240;2022-10-31T15:06:09;18.80;99.90
23259;DHT22;11798;51.528;7.240;2022-10-31T15:13:43;18.60;99.90
23259;DHT22;11798;51.528;7.240;2022-10-31T15:16:11;18.50;99.90
23259;DHT22;11798;51.528;7.240;2022-10-31T15:18:45;18.50;99.90
23259;DHT22;11798;51.528;7.240;2022-10-31T15:21:15;18.60;99.90
23259;DHT22;11798;51.528;7.240;2022-10-31T15:23:42;18.50;99.90
23259;DHT22;11798;51.528;7.240;2022-10-31T15:26:16;18.40;99.90
23259;DHT22;11798;51.528;7.240;2022-10-31T15:28:42;18.40;99.90
23259;DHT22;11798;51.528;7.240;2022-10-31T15:31:16;18.30;99.90
23259;DHT22;11798;51.528;7.240;2022-10-31T15:33:46;18.30;99.90
23259;DHT22;11798;51.528;7.240;2022-10-31T15:36:22;18.30;99.90
23259;DHT22;11798;51.528;7.240;2022-10-31T15:38:49;18.20;99.90
23259;DHT22;11798;51.528;7.240;2022-10-31T15:41:38;18.20;99.90
23259;DHT22;11798;51.528;7.240;2022-10-31T15:44:23;18.10;99.90
23259;DHT22;11798;51.528;7.240;2022-10-31T15:47:00;18.10;99.90
23259;DHT22;11798;51.528;7.240;2022-10-31T15:49:41;18.10;99.90
23259;DHT22;11798;51.528;7.240;2022-10-31T15:54:33;18.00;99.90
23259;DHT22;11798;51.528;7.240;2022-10-31T15:56:59;18.00;99.90
23259;DHT22;11798;51.528;7.240;2022-10-31T15:59:26;17.90;99.90
23259;DHT22;11798;51.528;7.240;2022-10-31T16:02:00;17.80;99.90
23259;DHT22;11798;51.528;7.240;2022-10-31T16:04:26;17.80;99.90
23259;DHT22;11798;51.528;7.240;2022-10-31T16:07:11;17.80;99.90
23259;DHT22;11798;51.528;7.240;2022-10-31T16:09:37;17.60;99.90
23259;DHT22;11798;51.528;7.240;2022-10-31T16:12:14;17.50;99.90
23259;DHT22;11798;51.528;7.240;2022-10-31T16:14:41;17.50;99.90
23259;DHT22;11798;51.528;7.240;2022-10-31T16:17:11;17.50;99.90
23259;DHT22;11798;51.528;7.240;2022-10-31T16:19:47;17.50;99.90
23259;DHT22;11798;51.528;7.240;2022-10-31T16:22:20;17.40;99.90
23259;DHT22;11798;51.528;7.240;2022-10-31T16:25:05;17.30;99.90
23259;DHT22;11798;51.528;7.240;2022-10-31T16:27:34;17.20;99.90
23259;DHT22;11798;51.528;7.240;2022-10-31T16:30:03;17.20;99.90
23259;DHT22;11798;51.528;7.240;2022-10-31T16:32:51;17.10;99.90
23259;DHT22;11798;51.528;7.240;2022-10-31T16:35:32;17.10;99.90
23259;DHT22;11798;51.528;7.240;2022-10-31T16:37:57;17.00;99.90
23259;DHT22;11798;51.528;7.240;2022-10-31T16:40:23;16.90;99.90
23259;DHT22;11798;51.528;7.240;2022-10-31T16:42:49;16.90;99.90
23259;DHT22;11798;51.528;7.240;2022-10-31T16:45:21;16.90;99.90
23259;DHT22;11798;51.528;7.240;2022-10-31T16:47:47;16.80;99.90
23259;DHT22;11798;51.528;7.240;2022-10-31T16:50:22;16.70;99.90
23259;DHT22;11798;51.528;7.240;2022-10-31T16:52:48;16.70;99.90
23259;DHT22;11798;51.528;7.240;2022-10-31T16:55:15;16.60;99.90
23259;DHT22;11798;51.528;7.240;2022-10-31T16:57:47;16.50;99.90
23259;DHT22;11798;51.528;7.240;2022-10-31T17:00:26;16.40;99.90
23259;DHT22;11798;51.528;7.240;2022-10-31T17:02:54;16.40;99.90
23259;DHT22;11798;51.528;7.240;2022-10-31T17:05:21;16.30;99.90
23259;DHT22;11798;51.528;7.240;2022-10-31T17:07:47;16.20;99.90
23259;DHT22;11798;51.528;7.240;2022-10-31T17:10:14;16.10;99.90
23259;DHT22;11798;51.528;7.240;2022-10-31T17:12:43;16.00;99.90
23259;DHT22;11798;51.528;7.240;2022-10-31T17:15:16;16.00;99.90
23259;DHT22;11798;51.528;7.240;2022-10-31T17:17:42;15.90;99.90
23259;DHT22;11798;51.528;7.240;2022-10-31T17:20:25;15.90;99.90
23259;DHT22;11798;51.528;7.240;2022-10-31T17:22:51;15.80;99.90
23259;DHT22;11798;51.528;7.240;2022-10-31T17:25:20;15.70;99.90
23259;DHT22;11798;51.528;7.240;2022-10-31T17:27:47;15.70;99.90
23259;DHT22;11798;51.528;7.240;2022-10-31T17:30:14;15.60;99.90
23259;DHT22;11798;51.528;7.240;2022-10-31T17:32:41;15.60;99.90
23259;DHT22;11798;51.528;7.240;2022-10-31T17:35:08;15.50;99.90
23259;DHT22;11798;51.528;7.240;2022-10-31T17:37:34;15.50;99.90
23259;DHT22;11798;51.528;7.240;2022-10-31T17:40:00;15.40;99.90
23259;DHT22;11798;51.528;7.240;2022-10-31T17:42:26;15.30;99.90
23259;DHT22;11798;51.528;7.240;2022-10-31T17:44:51;15.30;99.90
23259;DHT22;11798;51.528;7.240;2022-10-31T17:47:17;15.20;99.90
23259;DHT22;11798;51.528;7.240;2022-10-31T17:49:42;15.10;99.90
23259;DHT22;11798;51.528;7.240;2022-10-31T17:52:08;15.00;99.90
23259;DHT22;11798;51.528;7.240;2022-10-31T17:54:34;15.00;99.90
23259;DHT22;11798;51.528;7.240;2022-10-31T17:56:59;14.80;99.90